sensor_id;sensor_type;location;lat;lon;timestamp;P1;durP1;ratioP1;P2;durP2;ratioP2
76204;SDS011;64986;55.672;37.628;2023-04-06T00:01:36;4.15;;;2.25;;
76204;SDS011;64986;55.672;37.628;2023-04-06T00:04:02;3.40;;;2.50;;
76204;SDS011;64986;55.672;37.628;2023-04-06T00:06:28;4.07;;;2.58;;
76204;SDS011;64986;55.672;37.628;2023-04-06T00:08:53;4.88;;;2.53;;
76204;SDS011;64986;55.672;37.628;2023-04-06T00:11:19;5.45;;;2.50;;
76204;SDS011;64986;55.672;37.628;2023-04-06T00:13:45;3.05;;;2.28;;
76204;SDS011;64986;55.672;37.628;2023-04-06T00:16:10;6.97;;;3.05;;
76204;SDS011;64986;55.672;37.628;2023-04-06T00:18:36;5.75;;;2.40;;
76204;SDS011;64986;55.672;37.628;2023-04-06T00:21:01;4.05;;;2.72;;
76204;SDS011;64986;55.672;37.628;2023-04-06T00:23:27;4.88;;;2.55;;
76204;SDS011;64986;55.672;37.628;2023-04-06T00:25:53;6.25;;;2.67;;
76204;SDS011;64986;55.672;37.628;2023-04-06T00:28:18;4.00;;;2.47;;
76204;SDS011;64986;55.672;37.628;2023-04-06T00:30:50;3.67;;;2.45;;
76204;SDS011;64986;55.672;37.628;2023-04-06T00:33:17;10.25;;;2.33;;
76204;SDS011;64986;55.672;37.628;2023-04-06T00:35:43;2.92;;;2.22;;
76204;SDS011;64986;55.672;37.628;2023-04-06T00:38:08;3.78;;;2.13;;
76204;SDS011;64986;55.672;37.628;2023-04-06T00:40:34;5.20;;;2.45;;
76204;SDS011;64986;55.672;37.628;2023-04-06T00:43:00;5.72;;;2.67;;
76204;SDS011;64986;55.672;37.628;2023-04-06T00:45:25;3.97;;;2.80;;
76204;SDS011;64986;55.672;37.628;2023-04-06T00:47:51;4.47;;;2.03;;
76204;SDS011;64986;55.672;37.628;2023-04-06T00:50:17;5.45;;;2.88;;
76204;SDS011;64986;55.672;37.628;2023-04-06T00:52:42;5.95;;;2.70;;
76204;SDS011;64986;55.672;37.628;2023-04-06T00:55:08;3.53;;;2.72;;
76204;SDS011;64986;55.672;37.628;2023-04-06T00:57:33;3.83;;;2.75;;
76204;SDS011;64986;55.672;37.628;2023-04-06T00:59:59;4.28;;;2.40;;
76204;SDS011;64986;55.672;37.628;2023-04-06T01:02:25;2.80;;;2.30;;
76204;SDS011;64986;55.672;37.628;2023-04-06T01:04:51;3.60;;;2.60;;
76204;SDS011;64986;55.672;37.628;2023-04-06T01:07:18;3.53;;;2.58;;
76204;SDS011;64986;55.672;37.628;2023-04-06T01:09:44;7.93;;;2.78;;
76204;SDS011;64986;55.672;37.628;2023-04-06T01:12:10;5.93;;;2.45;;
76204;SDS011;64986;55.672;37.628;2023-04-06T01:14:35;5.93;;;3.10;;
76204;SDS011;64986;55.672;37.628;2023-04-06T01:17:01;7.35;;;3.42;;
76204;SDS011;64986;55.672;37.628;2023-04-06T01:19:27;6.93;;;3.60;;
76204;SDS011;64986;55.672;37.628;2023-04-06T01:21:53;6.43;;;2.83;;
76204;SDS011;64986;55.672;37.628;2023-04-06T01:24:19;4.10;;;2.85;;
76204;SDS011;64986;55.672;37.628;2023-04-06T01:26:45;4.55;;;2.50;;
76204;SDS011;64986;55.672;37.628;2023-04-06T01:29:10;5.88;;;3.08;;
76204;SDS011;64986;55.672;37.628;2023-04-06T01:31:36;7.10;;;3.35;;
76204;SDS011;64986;55.672;37.628;2023-04-06T01:34:02;4.25;;;3.08;;
76204;SDS011;64986;55.672;37.628;2023-04-06T01:36:27;4.53;;;2.67;;
76204;SDS011;64986;55.672;37.628;2023-04-06T01:38:53;7.70;;;3.28;;
76204;SDS011;64986;55.672;37.628;2023-04-06T01:41:18;6.35;;;2.97;;
76204;SDS011;64986;55.672;37.628;2023-04-06T01:43:45;10.32;;;3.03;;
76204;SDS011;64986;55.672;37.628;2023-04-06T01:46:10;7.50;;;2.92;;
76204;SDS011;64986;55.672;37.628;2023-04-06T01:48:36;4.90;;;3.17;;
76204;SDS011;64986;55.672;37.628;2023-04-06T01:51:01;6.30;;;3.25;;
76204;SDS011;64986;55.672;37.628;2023-04-06T01:53:27;7.20;;;2.88;;
76204;SDS011;64986;55.672;37.628;2023-04-06T01:55:52;4.75;;;2.90;;
76204;SDS011;64986;55.672;37.628;2023-04-06T01:58:18;5.35;;;3.15;;
76204;SDS011;64986;55.672;37.628;2023-04-06T02:00:43;5.43;;;2.97;;
76204;SDS011;64986;55.672;37.628;2023-04-06T02:03:09;5.53;;;2.40;;
76204;SDS011;64986;55.672;37.628;2023-04-06T02:05:35;4.13;;;2.97;;
76204;SDS011;64986;55.672;37.628;2023-04-06T02:08:04;4.47;;;2.80;;
76204;SDS011;64986;55.672;37.628;2023-04-06T02:10:30;3.22;;;2.17;;
76204;SDS011;64986;55.672;37.628;2023-04-06T02:12:56;4.07;;;2.33;;
76204;SDS011;64986;55.672;37.628;2023-04-06T02:15:22;4.43;;;2.45;;
76204;SDS011;64986;55.672;37.628;2023-04-06T02:17:47;7.15;;;2.92;;
76204;SDS011;64986;55.672;37.628;2023-04-06T02:20:13;5.22;;;3.13;;
76204;SDS011;64986;55.672;37.628;2023-04-06T02:22:39;3.67;;;2.45;;
76204;SDS011;64986;55.672;37.628;2023-04-06T02:25:05;5.05;;;2.88;;
76204;SDS011;64986;55.672;37.628;2023-04-06T02:27:30;3.85;;;2.60;;
76204;SDS011;64986;55.672;37.628;2023-04-06T02:29:56;5.40;;;2.90;;
76204;SDS011;64986;55.672;37.628;2023-04-06T02:32:22;3.97;;;2.33;;
76204;SDS011;64986;55.672;37.628;2023-04-06T02:34:47;6.20;;;2.70;;
76204;SDS011;64986;55.672;37.628;2023-04-06T02:37:13;4.03;;;2.60;;
76204;SDS011;64986;55.672;37.628;2023-04-06T02:39:38;6.57;;;2.90;;
76204;SDS011;64986;55.672;37.628;2023-04-06T02:42:04;2.70;;;1.80;;
76204;SDS011;64986;55.672;37.628;2023-04-06T02:44:29;4.43;;;2.92;;
76204;SDS011;64986;55.672;37.628;2023-04-06T02:46:55;8.43;;;2.60;;
76204;SDS011;64986;55.672;37.628;2023-04-06T02:49:20;9.40;;;3.40;;
76204;SDS011;64986;55.672;37.628;2023-04-06T02:51:46;9.35;;;2.70;;
76204;SDS011;64986;55.672;37.628;2023-04-06T02:54:12;4.28;;;2.50;;
76204;SDS011;64986;55.672;37.628;2023-04-06T02:56:37;5.60;;;2.35;;
76204;SDS011;64986;55.672;37.628;2023-04-06T02:59:03;5.63;;;2.90;;
76204;SDS011;64986;55.672;37.628;2023-04-06T03:01:28;8.07;;;2.97;;
76204;SDS011;64986;55.672;37.628;2023-04-06T03:03:54;4.22;;;3.05;;
76204;SDS011;64986;55.672;37.628;2023-04-06T03:06:19;5.72;;;2.80;;
76204;SDS011;64986;55.672;37.628;2023-04-06T03:08:45;5.43;;;2.78;;
76204;SDS011;64986;55.672;37.628;2023-04-06T03:11:10;5.18;;;2.22;;
76204;SDS011;64986;55.672;37.628;2023-04-06T03:13:36;3.10;;;2.45;;
76204;SDS011;64986;55.672;37.628;2023-04-06T03:16:04;4.43;;;2.72;;
76204;SDS011;64986;55.672;37.628;2023-04-06T03:18:30;4.55;;;2.80;;
76204;SDS011;64986;55.672;37.628;2023-04-06T03:20:56;6.22;;;2.42;;
76204;SDS011;64986;55.672;37.628;2023-04-06T03:23:22;5.07;;;3.03;;
76204;SDS011;64986;55.672;37.628;2023-04-06T03:25:47;5.63;;;2.53;;
76204;SDS011;64986;55.672;37.628;2023-04-06T03:28:13;7.10;;;2.67;;
76204;SDS011;64986;55.672;37.628;2023-04-06T03:30:39;9.05;;;2.47;;
76204;SDS011;64986;55.672;37.628;2023-04-06T03:33:05;6.43;;;2.58;;
76204;SDS011;64986;55.672;37.628;2023-04-06T03:35:30;7.47;;;2.80;;
76204;SDS011;64986;55.672;37.628;2023-04-06T03:37:56;7.95;;;2.67;;
76204;SDS011;64986;55.672;37.628;2023-04-06T03:40:22;4.30;;;2.35;;
76204;SDS011;64986;55.672;37.628;2023-04-06T03:42:48;7.93;;;2.50;;
76204;SDS011;64986;55.672;37.628;2023-04-06T03:45:13;5.03;;;2.40;;
76204;SDS011;64986;55.672;37.628;2023-04-06T03:47:39;4.85;;;2.25;;
76204;SDS011;64986;55.672;37.628;2023-04-06T03:50:05;3.67;;;1.95;;
76204;SDS011;64986;55.672;37.628;2023-04-06T03:52:31;8.68;;;3.13;;
76204;SDS011;64986;55.672;37.628;2023-04-06T03:54:56;6.07;;;2.30;;
76204;SDS011;64986;55.672;37.628;2023-04-06T03:57:22;6.85;;;2.13;;
76204;SDS011;64986;55.672;37.628;2023-04-06T03:59:47;5.70;;;3.30;;
76204;SDS011;64986;55.672;37.628;2023-04-06T04:02:13;4.93;;;2.60;;
76204;SDS011;64986;55.672;37.628;2023-04-06T04:04:38;15.30;;;2.40;;
76204;SDS011;64986;55.672;37.628;2023-04-06T04:07:04;9.30;;;3.40;;
76204;SDS011;64986;55.672;37.628;2023-04-06T04:09:30;5.88;;;2.35;;
76204;SDS011;64986;55.672;37.628;2023-04-06T04:11:55;7.15;;;2.80;;
76204;SDS011;64986;55.672;37.628;2023-04-06T04:14:21;6.72;;;2.78;;
76204;SDS011;64986;55.672;37.628;2023-04-06T04:16:46;9.65;;;3.20;;
76204;SDS011;64986;55.672;37.628;2023-04-06T04:19:12;5.43;;;2.53;;
76204;SDS011;64986;55.672;37.628;2023-04-06T04:21:44;4.68;;;2.40;;
76204;SDS011;64986;55.672;37.628;2023-04-06T04:24:10;15.10;;;3.33;;
76204;SDS011;64986;55.672;37.628;2023-04-06T04:26:37;9.98;;;3.53;;
76204;SDS011;64986;55.672;37.628;2023-04-06T04:29:03;6.78;;;2.83;;
76204;SDS011;64986;55.672;37.628;2023-04-06T04:31:28;8.27;;;2.70;;
76204;SDS011;64986;55.672;37.628;2023-04-06T04:33:54;5.45;;;2.65;;
76204;SDS011;64986;55.672;37.628;2023-04-06T04:36:20;9.77;;;2.80;;
76204;SDS011;64986;55.672;37.628;2023-04-06T04:38:46;8.45;;;3.25;;
76204;SDS011;64986;55.672;37.628;2023-04-06T04:41:11;8.88;;;2.95;;
76204;SDS011;64986;55.672;37.628;2023-04-06T04:43:37;8.18;;;3.20;;
76204;SDS011;64986;55.672;37.628;2023-04-06T04:46:04;9.57;;;2.83;;
76204;SDS011;64986;55.672;37.628;2023-04-06T04:48:30;8.60;;;2.78;;
76204;SDS011;64986;55.672;37.628;2023-04-06T04:50:55;6.45;;;2.67;;
76204;SDS011;64986;55.672;37.628;2023-04-06T04:53:21;11.25;;;2.90;;
76204;SDS011;64986;55.672;37.628;2023-04-06T04:55:46;8.77;;;3.30;;
76204;SDS011;64986;55.672;37.628;2023-04-06T04:58:12;12.55;;;2.90;;
76204;SDS011;64986;55.672;37.628;2023-04-06T05:00:42;7.43;;;3.00;;
76204;SDS011;64986;55.672;37.628;2023-04-06T05:03:08;11.38;;;2.88;;
76204;SDS011;64986;55.672;37.628;2023-04-06T05:05:39;9.00;;;3.13;;
76204;SDS011;64986;55.672;37.628;2023-04-06T05:08:04;6.55;;;2.40;;
76204;SDS011;64986;55.672;37.628;2023-04-06T05:10:30;23.42;;;3.80;;
76204;SDS011;64986;55.672;37.628;2023-04-06T05:12:55;15.15;;;3.00;;
76204;SDS011;64986;55.672;37.628;2023-04-06T05:15:21;7.13;;;3.05;;
76204;SDS011;64986;55.672;37.628;2023-04-06T05:17:47;13.25;;;3.47;;
76204;SDS011;64986;55.672;37.628;2023-04-06T05:20:12;7.55;;;2.88;;
76204;SDS011;64986;55.672;37.628;2023-04-06T05:22:38;10.30;;;3.97;;
76204;SDS011;64986;55.672;37.628;2023-04-06T05:25:04;16.20;;;3.10;;
76204;SDS011;64986;55.672;37.628;2023-04-06T05:27:30;14.45;;;3.28;;
76204;SDS011;64986;55.672;37.628;2023-04-06T05:29:55;10.82;;;3.00;;
76204;SDS011;64986;55.672;37.628;2023-04-06T05:32:21;13.73;;;3.63;;
76204;SDS011;64986;55.672;37.628;2023-04-06T05:34:48;8.18;;;2.67;;
76204;SDS011;64986;55.672;37.628;2023-04-06T05:37:15;14.43;;;3.30;;
76204;SDS011;64986;55.672;37.628;2023-04-06T05:39:41;17.38;;;3.65;;
76204;SDS011;64986;55.672;37.628;2023-04-06T05:42:06;11.13;;;3.25;;
76204;SDS011;64986;55.672;37.628;2023-04-06T05:44:32;7.00;;;2.38;;
76204;SDS011;64986;55.672;37.628;2023-04-06T05:46:58;13.55;;;3.25;;
76204;SDS011;64986;55.672;37.628;2023-04-06T05:49:24;9.88;;;3.63;;
76204;SDS011;64986;55.672;37.628;2023-04-06T05:51:49;11.63;;;2.78;;
76204;SDS011;64986;55.672;37.628;2023-04-06T05:54:15;16.63;;;3.15;;
76204;SDS011;64986;55.672;37.628;2023-04-06T05:56:41;27.85;;;4.97;;
76204;SDS011;64986;55.672;37.628;2023-04-06T05:59:06;27.08;;;4.35;;
76204;SDS011;64986;55.672;37.628;2023-04-06T06:01:32;5.15;;;2.38;;
76204;SDS011;64986;55.672;37.628;2023-04-06T06:04:02;6.95;;;3.00;;
76204;SDS011;64986;55.672;37.628;2023-04-06T06:06:28;8.45;;;2.70;;
76204;SDS011;64986;55.672;37.628;2023-04-06T06:08:57;18.73;;;3.90;;
76204;SDS011;64986;55.672;37.628;2023-04-06T06:11:25;10.73;;;3.95;;
76204;SDS011;64986;55.672;37.628;2023-04-06T06:13:51;18.45;;;4.15;;
76204;SDS011;64986;55.672;37.628;2023-04-06T06:16:17;12.00;;;3.17;;
76204;SDS011;64986;55.672;37.628;2023-04-06T06:18:44;13.35;;;3.38;;
76204;SDS011;64986;55.672;37.628;2023-04-06T06:21:10;15.02;;;3.22;;
76204;SDS011;64986;55.672;37.628;2023-04-06T06:23:37;16.88;;;3.53;;
76204;SDS011;64986;55.672;37.628;2023-04-06T06:26:03;11.27;;;3.90;;
76204;SDS011;64986;55.672;37.628;2023-04-06T06:28:29;23.33;;;4.38;;
76204;SDS011;64986;55.672;37.628;2023-04-06T06:30:55;12.93;;;4.20;;
76204;SDS011;64986;55.672;37.628;2023-04-06T06:33:21;7.07;;;3.17;;
76204;SDS011;64986;55.672;37.628;2023-04-06T06:35:46;19.00;;;3.42;;
76204;SDS011;64986;55.672;37.628;2023-04-06T06:38:12;10.20;;;3.55;;
76204;SDS011;64986;55.672;37.628;2023-04-06T06:40:37;9.93;;;3.30;;
76204;SDS011;64986;55.672;37.628;2023-04-06T06:43:03;17.88;;;3.35;;
76204;SDS011;64986;55.672;37.628;2023-04-06T06:45:29;5.95;;;2.90;;
76204;SDS011;64986;55.672;37.628;2023-04-06T06:47:54;9.70;;;3.30;;
76204;SDS011;64986;55.672;37.628;2023-04-06T06:50:20;11.05;;;3.55;;
76204;SDS011;64986;55.672;37.628;2023-04-06T06:52:45;10.23;;;3.67;;
76204;SDS011;64986;55.672;37.628;2023-04-06T06:55:11;6.95;;;3.08;;
76204;SDS011;64986;55.672;37.628;2023-04-06T06:57:37;11.50;;;3.15;;
76204;SDS011;64986;55.672;37.628;2023-04-06T07:00:03;16.98;;;3.58;;
76204;SDS011;64986;55.672;37.628;2023-04-06T07:02:30;15.75;;;4.20;;
76204;SDS011;64986;55.672;37.628;2023-04-06T07:04:56;11.70;;;3.53;;
76204;SDS011;64986;55.672;37.628;2023-04-06T07:07:22;13.95;;;3.55;;
76204;SDS011;64986;55.672;37.628;2023-04-06T07:09:47;20.13;;;3.60;;
76204;SDS011;64986;55.672;37.628;2023-04-06T07:12:13;19.27;;;4.80;;
76204;SDS011;64986;55.672;37.628;2023-04-06T07:14:38;12.82;;;3.33;;
76204;SDS011;64986;55.672;37.628;2023-04-06T07:17:04;15.10;;;4.00;;
76204;SDS011;64986;55.672;37.628;2023-04-06T07:19:30;18.27;;;4.60;;
76204;SDS011;64986;55.672;37.628;2023-04-06T07:21:55;19.25;;;4.28;;
76204;SDS011;64986;55.672;37.628;2023-04-06T07:24:21;20.48;;;4.18;;
76204;SDS011;64986;55.672;37.628;2023-04-06T07:26:46;23.92;;;3.78;;
76204;SDS011;64986;55.672;37.628;2023-04-06T07:29:12;21.80;;;4.00;;
76204;SDS011;64986;55.672;37.628;2023-04-06T07:31:38;20.73;;;4.00;;
76204;SDS011;64986;55.672;37.628;2023-04-06T07:34:03;7.07;;;3.05;;
76204;SDS011;64986;55.672;37.628;2023-04-06T07:36:29;35.10;;;5.43;;
76204;SDS011;64986;55.672;37.628;2023-04-06T07:38:54;29.63;;;3.97;;
76204;SDS011;64986;55.672;37.628;2023-04-06T07:41:20;22.60;;;4.40;;
76204;SDS011;64986;55.672;37.628;2023-04-06T07:43:45;25.77;;;4.25;;
76204;SDS011;64986;55.672;37.628;2023-04-06T07:46:11;28.52;;;4.82;;
76204;SDS011;64986;55.672;37.628;2023-04-06T07:48:36;18.02;;;4.00;;
76204;SDS011;64986;55.672;37.628;2023-04-06T07:51:03;17.05;;;3.65;;
76204;SDS011;64986;55.672;37.628;2023-04-06T07:53:30;17.60;;;4.07;;
76204;SDS011;64986;55.672;37.628;2023-04-06T07:55:56;20.92;;;3.80;;
76204;SDS011;64986;55.672;37.628;2023-04-06T07:58:23;20.17;;;3.90;;
76204;SDS011;64986;55.672;37.628;2023-04-06T08:00:48;19.00;;;4.15;;
76204;SDS011;64986;55.672;37.628;2023-04-06T08:03:14;14.55;;;2.80;;
76204;SDS011;64986;55.672;37.628;2023-04-06T08:05:41;24.25;;;3.83;;
76204;SDS011;64986;55.672;37.628;2023-04-06T08:08:07;16.23;;;3.58;;
76204;SDS011;64986;55.672;37.628;2023-04-06T08:10:33;13.85;;;3.97;;
76204;SDS011;64986;55.672;37.628;2023-04-06T08:12:59;24.63;;;3.97;;
76204;SDS011;64986;55.672;37.628;2023-04-06T08:15:25;9.65;;;3.90;;
76204;SDS011;64986;55.672;37.628;2023-04-06T08:17:51;14.13;;;4.57;;
76204;SDS011;64986;55.672;37.628;2023-04-06T08:20:16;12.13;;;3.17;;
76204;SDS011;64986;55.672;37.628;2023-04-06T08:22:42;18.30;;;4.15;;
76204;SDS011;64986;55.672;37.628;2023-04-06T08:25:07;12.50;;;4.32;;
76204;SDS011;64986;55.672;37.628;2023-04-06T08:27:33;24.30;;;5.13;;
76204;SDS011;64986;55.672;37.628;2023-04-06T08:29:59;27.75;;;6.65;;
76204;SDS011;64986;55.672;37.628;2023-04-06T08:32:24;31.35;;;5.55;;
76204;SDS011;64986;55.672;37.628;2023-04-06T08:34:52;17.25;;;5.50;;
76204;SDS011;64986;55.672;37.628;2023-04-06T08:37:20;15.63;;;3.47;;
76204;SDS011;64986;55.672;37.628;2023-04-06T08:39:46;16.05;;;4.95;;
76204;SDS011;64986;55.672;37.628;2023-04-06T08:42:19;15.18;;;4.95;;
76204;SDS011;64986;55.672;37.628;2023-04-06T08:44:47;22.48;;;4.45;;
76204;SDS011;64986;55.672;37.628;2023-04-06T08:47:16;25.67;;;6.22;;
76204;SDS011;64986;55.672;37.628;2023-04-06T08:49:41;24.13;;;4.82;;
76204;SDS011;64986;55.672;37.628;2023-04-06T08:52:09;22.90;;;4.45;;
76204;SDS011;64986;55.672;37.628;2023-04-06T08:54:37;18.67;;;4.18;;
76204;SDS011;64986;55.672;37.628;2023-04-06T08:57:04;14.05;;;3.58;;
76204;SDS011;64986;55.672;37.628;2023-04-06T08:59:31;11.73;;;3.55;;
76204;SDS011;64986;55.672;37.628;2023-04-06T09:01:57;19.63;;;3.63;;
76204;SDS011;64986;55.672;37.628;2023-04-06T09:04:24;25.42;;;4.82;;
76204;SDS011;64986;55.672;37.628;2023-04-06T09:06:51;21.05;;;5.43;;
76204;SDS011;64986;55.672;37.628;2023-04-06T09:09:17;25.13;;;4.80;;
76204;SDS011;64986;55.672;37.628;2023-04-06T09:11:43;21.02;;;3.15;;
76204;SDS011;64986;55.672;37.628;2023-04-06T09:14:10;17.40;;;3.53;;
76204;SDS011;64986;55.672;37.628;2023-04-06T09:16:40;23.35;;;4.32;;
76204;SDS011;64986;55.672;37.628;2023-04-06T09:19:06;21.23;;;4.38;;
76204;SDS011;64986;55.672;37.628;2023-04-06T09:21:32;9.73;;;3.10;;
76204;SDS011;64986;55.672;37.628;2023-04-06T09:24:01;20.20;;;3.60;;
76204;SDS011;64986;55.672;37.628;2023-04-06T09:26:27;25.63;;;3.38;;
76204;SDS011;64986;55.672;37.628;2023-04-06T09:28:54;7.50;;;2.50;;
76204;SDS011;64986;55.672;37.628;2023-04-06T09:31:30;17.10;;;4.00;;
76204;SDS011;64986;55.672;37.628;2023-04-06T09:33:59;18.02;;;4.25;;
76204;SDS011;64986;55.672;37.628;2023-04-06T09:36:31;10.07;;;3.03;;
76204;SDS011;64986;55.672;37.628;2023-04-06T09:38:59;16.48;;;3.58;;
76204;SDS011;64986;55.672;37.628;2023-04-06T09:41:30;16.90;;;3.40;;
76204;SDS011;64986;55.672;37.628;2023-04-06T09:44:07;21.85;;;3.92;;
76204;SDS011;64986;55.672;37.628;2023-04-06T09:46:40;15.80;;;3.53;;
76204;SDS011;64986;55.672;37.628;2023-04-06T09:49:07;14.70;;;2.90;;
76204;SDS011;64986;55.672;37.628;2023-04-06T09:54:19;9.48;;;3.15;;
76204;SDS011;64986;55.672;37.628;2023-04-06T09:56:47;13.23;;;3.45;;
76204;SDS011;64986;55.672;37.628;2023-04-06T09:59:29;15.52;;;3.95;;
76204;SDS011;64986;55.672;37.628;2023-04-06T10:02:03;12.23;;;2.95;;
76204;SDS011;64986;55.672;37.628;2023-04-06T10:07:02;12.30;;;2.95;;
76204;SDS011;64986;55.672;37.628;2023-04-06T10:09:28;25.63;;;4.50;;
76204;SDS011;64986;55.672;37.628;2023-04-06T10:12:04;28.58;;;4.30;;
76204;SDS011;64986;55.672;37.628;2023-04-06T10:14:34;10.75;;;3.40;;
76204;SDS011;64986;55.672;37.628;2023-04-06T10:17:02;16.02;;;3.25;;
76204;SDS011;64986;55.672;37.628;2023-04-06T10:19:41;7.75;;;2.33;;
76204;SDS011;64986;55.672;37.628;2023-04-06T10:22:16;7.78;;;2.50;;
76204;SDS011;64986;55.672;37.628;2023-04-06T10:24:49;22.17;;;2.88;;
76204;SDS011;64986;55.672;37.628;2023-04-06T10:27:15;26.70;;;3.25;;
76204;SDS011;64986;55.672;37.628;2023-04-06T10:29:47;16.25;;;3.30;;
76204;SDS011;64986;55.672;37.628;2023-04-06T10:32:16;14.48;;;3.25;;
76204;SDS011;64986;55.672;37.628;2023-04-06T10:34:41;17.60;;;3.22;;
76204;SDS011;64986;55.672;37.628;2023-04-06T10:37:11;17.85;;;3.08;;
76204;SDS011;64986;55.672;37.628;2023-04-06T10:39:45;16.48;;;2.88;;
76204;SDS011;64986;55.672;37.628;2023-04-06T10:44:41;9.93;;;2.08;;
76204;SDS011;64986;55.672;37.628;2023-04-06T10:47:15;20.65;;;3.88;;
76204;SDS011;64986;55.672;37.628;2023-04-06T10:49:45;17.10;;;3.00;;
76204;SDS011;64986;55.672;37.628;2023-04-06T10:52:11;11.60;;;2.85;;
76204;SDS011;64986;55.672;37.628;2023-04-06T10:54:40;18.48;;;3.78;;
76204;SDS011;64986;55.672;37.628;2023-04-06T10:57:09;20.80;;;3.42;;
76204;SDS011;64986;55.672;37.628;2023-04-06T10:59:35;17.67;;;2.90;;
76204;SDS011;64986;55.672;37.628;2023-04-06T11:02:00;24.25;;;3.67;;
76204;SDS011;64986;55.672;37.628;2023-04-06T11:04:26;26.10;;;4.38;;
76204;SDS011;64986;55.672;37.628;2023-04-06T11:06:51;37.55;;;4.65;;
76204;SDS011;64986;55.672;37.628;2023-04-06T11:09:27;36.85;;;4.85;;
76204;SDS011;64986;55.672;37.628;2023-04-06T11:11:53;15.32;;;2.50;;
76204;SDS011;64986;55.672;37.628;2023-04-06T11:14:20;17.10;;;2.85;;
76204;SDS011;64986;55.672;37.628;2023-04-06T11:16:46;18.25;;;2.67;;
76204;SDS011;64986;55.672;37.628;2023-04-06T11:19:15;38.88;;;4.70;;
76204;SDS011;64986;55.672;37.628;2023-04-06T11:21:42;24.17;;;5.80;;
76204;SDS011;64986;55.672;37.628;2023-04-06T11:29:04;12.20;;;3.40;;
76204;SDS011;64986;55.672;37.628;2023-04-06T11:31:31;29.17;;;5.88;;
76204;SDS011;64986;55.672;37.628;2023-04-06T11:33:56;16.45;;;4.03;;
76204;SDS011;64986;55.672;37.628;2023-04-06T11:36:22;11.25;;;3.22;;
76204;SDS011;64986;55.672;37.628;2023-04-06T11:38:48;17.65;;;3.25;;
76204;SDS011;64986;55.672;37.628;2023-04-06T11:41:14;13.73;;;2.85;;
76204;SDS011;64986;55.672;37.628;2023-04-06T11:43:45;12.25;;;3.45;;
76204;SDS011;64986;55.672;37.628;2023-04-06T11:46:16;5.47;;;1.70;;
76204;SDS011;64986;55.672;37.628;2023-04-06T11:48:44;9.52;;;2.28;;
76204;SDS011;64986;55.672;37.628;2023-04-06T11:51:10;24.58;;;4.22;;
76204;SDS011;64986;55.672;37.628;2023-04-06T11:53:43;13.05;;;3.45;;
76204;SDS011;64986;55.672;37.628;2023-04-06T11:56:11;19.42;;;3.53;;
76204;SDS011;64986;55.672;37.628;2023-04-06T11:58:36;17.67;;;3.63;;
76204;SDS011;64986;55.672;37.628;2023-04-06T12:01:05;15.73;;;2.67;;
76204;SDS011;64986;55.672;37.628;2023-04-06T12:03:30;17.30;;;2.70;;
76204;SDS011;64986;55.672;37.628;2023-04-06T12:05:56;25.48;;;3.63;;
76204;SDS011;64986;55.672;37.628;2023-04-06T12:08:22;11.98;;;3.00;;
76204;SDS011;64986;55.672;37.628;2023-04-06T12:10:50;17.63;;;2.42;;
76204;SDS011;64986;55.672;37.628;2023-04-06T12:13:16;11.73;;;2.70;;
76204;SDS011;64986;55.672;37.628;2023-04-06T12:15:41;7.13;;;2.42;;
76204;SDS011;64986;55.672;37.628;2023-04-06T12:18:07;14.40;;;2.72;;
76204;SDS011;64986;55.672;37.628;2023-04-06T12:20:32;7.35;;;2.13;;
76204;SDS011;64986;55.672;37.628;2023-04-06T12:22:58;17.88;;;2.58;;
76204;SDS011;64986;55.672;37.628;2023-04-06T12:25:24;28.88;;;4.20;;
76204;SDS011;64986;55.672;37.628;2023-04-06T12:27:49;17.27;;;2.92;;
76204;SDS011;64986;55.672;37.628;2023-04-06T12:30:15;8.52;;;2.40;;
76204;SDS011;64986;55.672;37.628;2023-04-06T12:32:41;14.55;;;3.60;;
76204;SDS011;64986;55.672;37.628;2023-04-06T12:35:06;8.27;;;2.30;;
76204;SDS011;64986;55.672;37.628;2023-04-06T12:37:34;9.20;;;2.75;;
76204;SDS011;64986;55.672;37.628;2023-04-06T12:39:59;17.50;;;2.80;;
76204;SDS011;64986;55.672;37.628;2023-04-06T12:42:25;12.10;;;2.78;;
76204;SDS011;64986;55.672;37.628;2023-04-06T12:44:51;18.52;;;3.58;;
76204;SDS011;64986;55.672;37.628;2023-04-06T12:47:17;20.60;;;3.22;;
76204;SDS011;64986;55.672;37.628;2023-04-06T12:49:43;18.90;;;3.38;;
76204;SDS011;64986;55.672;37.628;2023-04-06T12:52:09;17.35;;;2.90;;
76204;SDS011;64986;55.672;37.628;2023-04-06T12:54:34;8.70;;;2.40;;
76204;SDS011;64986;55.672;37.628;2023-04-06T12:57:00;23.48;;;3.83;;
76204;SDS011;64986;55.672;37.628;2023-04-06T12:59:26;19.85;;;3.40;;
76204;SDS011;64986;55.672;37.628;2023-04-06T13:01:53;18.27;;;3.22;;
76204;SDS011;64986;55.672;37.628;2023-04-06T13:04:18;21.05;;;2.72;;
76204;SDS011;64986;55.672;37.628;2023-04-06T13:06:44;14.27;;;1.90;;
76204;SDS011;64986;55.672;37.628;2023-04-06T13:09:09;13.50;;;2.30;;
76204;SDS011;64986;55.672;37.628;2023-04-06T13:11:35;12.10;;;2.45;;
76204;SDS011;64986;55.672;37.628;2023-04-06T13:14:00;10.73;;;2.58;;
76204;SDS011;64986;55.672;37.628;2023-04-06T13:16:26;12.50;;;2.63;;
76204;SDS011;64986;55.672;37.628;2023-04-06T13:18:52;9.93;;;2.22;;
76204;SDS011;64986;55.672;37.628;2023-04-06T13:21:18;7.80;;;2.53;;
76204;SDS011;64986;55.672;37.628;2023-04-06T13:23:45;12.77;;;3.10;;
76204;SDS011;64986;55.672;37.628;2023-04-06T13:26:11;15.75;;;2.35;;
76204;SDS011;64986;55.672;37.628;2023-04-06T13:28:38;20.17;;;2.55;;
76204;SDS011;64986;55.672;37.628;2023-04-06T13:31:04;8.43;;;2.15;;
76204;SDS011;64986;55.672;37.628;2023-04-06T13:33:30;13.23;;;3.83;;
76204;SDS011;64986;55.672;37.628;2023-04-06T13:35:56;13.65;;;3.08;;
76204;SDS011;64986;55.672;37.628;2023-04-06T13:38:22;14.30;;;2.35;;
76204;SDS011;64986;55.672;37.628;2023-04-06T13:40:49;16.67;;;2.83;;
76204;SDS011;64986;55.672;37.628;2023-04-06T13:43:14;11.38;;;2.13;;
76204;SDS011;64986;55.672;37.628;2023-04-06T13:45:40;10.60;;;2.38;;
76204;SDS011;64986;55.672;37.628;2023-04-06T13:48:06;6.65;;;2.17;;
76204;SDS011;64986;55.672;37.628;2023-04-06T13:50:32;7.95;;;2.30;;
76204;SDS011;64986;55.672;37.628;2023-04-06T13:52:58;13.00;;;2.85;;
76204;SDS011;64986;55.672;37.628;2023-04-06T13:55:24;3.17;;;1.70;;
76204;SDS011;64986;55.672;37.628;2023-04-06T13:57:49;12.95;;;2.78;;
76204;SDS011;64986;55.672;37.628;2023-04-06T14:00:16;19.60;;;2.83;;
76204;SDS011;64986;55.672;37.628;2023-04-06T14:02:42;14.27;;;3.17;;
76204;SDS011;64986;55.672;37.628;2023-04-06T14:05:07;11.52;;;3.38;;
76204;SDS011;64986;55.672;37.628;2023-04-06T14:07:33;15.25;;;3.85;;
76204;SDS011;64986;55.672;37.628;2023-04-06T14:09:59;16.40;;;4.00;;
76204;SDS011;64986;55.672;37.628;2023-04-06T14:12:25;9.50;;;2.67;;
76204;SDS011;64986;55.672;37.628;2023-04-06T14:14:51;7.80;;;1.85;;
76204;SDS011;64986;55.672;37.628;2023-04-06T14:17:17;18.67;;;3.03;;
76204;SDS011;64986;55.672;37.628;2023-04-06T14:19:43;12.20;;;2.28;;
76204;SDS011;64986;55.672;37.628;2023-04-06T14:22:08;11.73;;;2.40;;
76204;SDS011;64986;55.672;37.628;2023-04-06T14:24:34;11.52;;;2.47;;
76204;SDS011;64986;55.672;37.628;2023-04-06T14:27:00;13.75;;;1.98;;
76204;SDS011;64986;55.672;37.628;2023-04-06T14:29:27;12.02;;;2.38;;
76204;SDS011;64986;55.672;37.628;2023-04-06T14:31:53;8.05;;;2.30;;
76204;SDS011;64986;55.672;37.628;2023-04-06T14:34:24;11.20;;;2.85;;
76204;SDS011;64986;55.672;37.628;2023-04-06T14:36:53;15.45;;;2.35;;